Nearby METAR Reports

 

EGTE - Exeter Airport, United Kingdom
Distance from station: S 19km
Updated: 22/06/2024 00:20
Nearby showers, Mostly cloudy
Nearby showers, Mostly cloudy
 Wind from SSW
Wind: SSW 11 km/h
Temperature: 14°C
Dew Point: 14°C
Humidity: 100%
Barometer: 1011 hPa
Summary: Nearby Showers
Clouds: Mostly cloudy
Visibility: 8 km
Cloud details: Mostly cloudy 457 m
2024/06/21 23:20 EGTE 212320Z 21006KT 8000 VCSH BKN015 14/14 Q1011
EGDY - Yeovilton (navy), United Kingdom
Distance from station: ENE 55km
Updated: 22/06/2024 00:20
Overcast
Overcast
 Wind from SSW
Wind: SSW 13 km/h
Temperature: 15°C
Dew Point: 13°C
Humidity: 88%
Barometer: 1011 hPa
Clouds: Overcast
Visibility: 10 km
Cloud details: Overcast 244 m
2024/06/21 23:20 EGDY 212320Z AUTO 20007KT 9999 // OVC008/// 15/13 Q1011
 
EGFF - Cardiff-Wales Ar, United Kingdom
Distance from station: N 56km
Updated: 22/06/2024 00:20
Drizzle, Overcast
Drizzle, Overcast
 Wind from S
Wind: S 6 km/h
Temperature: 14°C
Dew Point: 13°C
Humidity: 94%
Barometer: 1010 hPa
Summary: Drizzle
Clouds: Overcast
Visibility: 2 km
Cloud details: Partly cloudy 244 m
Mostly cloudy 488 m
Overcast 823 m
2024/06/21 23:20 EGFF 212320Z AUTO 19003KT 150V220 2200 DZ SCT008 BKN016 OVC027 14/13 Q1010 RERA
EGDX - St Athan Raf, United Kingdom
Distance from station: N 58km
Updated: 01/04/2019 13:50
NOT Current
Clear
Clear
 Wind from E
Wind: E 15 km/h
Temperature: 11°C
Dew Point: 5°C
Humidity: 67%
Barometer: 1019 hPa
Clouds: Clear
Visibility: 10 km
2019/04/01 12:50 EGDX 011250Z AUTO 10008KT 9999 NCD 11/05 Q1019
 
EGGD - Bristol/Lulsgate, United Kingdom
Distance from station: NE 71km
Updated: 22/06/2024 00:20
Overcast
Overcast
 Wind from SSW
Wind: SSW 15 km/h
Temperature: 13°C
Dew Point: 13°C
Humidity: 100%
Barometer: 1011 hPa
Clouds: Overcast
Visibility: 10 km
Cloud details: Overcast 122 m
2024/06/21 23:20 EGGD 212320Z AUTO 20008KT 9999 OVC004 13/13 Q1011